sensor_id;sensor_type;location;lat;lon;timestamp;P1;durP1;ratioP1;P2;durP2;ratioP2
46731;SDS011;32477;51.474;5.696;2024-02-28T00:01:47;111.70;;;27.85;;
46731;SDS011;32477;51.474;5.696;2024-02-28T00:04:17;125.10;;;30.33;;
46731;SDS011;32477;51.474;5.696;2024-02-28T00:06:43;117.72;;;30.02;;
46731;SDS011;32477;51.474;5.696;2024-02-28T00:09:12;116.78;;;29.85;;
46731;SDS011;32477;51.474;5.696;2024-02-28T00:11:44;95.53;;;29.15;;
46731;SDS011;32477;51.474;5.696;2024-02-28T00:14:11;125.70;;;29.00;;
46731;SDS011;32477;51.474;5.696;2024-02-28T00:16:40;126.75;;;31.17;;
46731;SDS011;32477;51.474;5.696;2024-02-28T00:19:06;114.47;;;31.00;;
46731;SDS011;32477;51.474;5.696;2024-02-28T00:21:32;141.52;;;32.22;;
46731;SDS011;32477;51.474;5.696;2024-02-28T00:23:58;132.35;;;31.55;;
46731;SDS011;32477;51.474;5.696;2024-02-28T00:26:23;119.47;;;30.58;;
46731;SDS011;32477;51.474;5.696;2024-02-28T00:28:49;115.80;;;30.05;;
46731;SDS011;32477;51.474;5.696;2024-02-28T00:31:14;130.80;;;30.02;;
46731;SDS011;32477;51.474;5.696;2024-02-28T00:33:40;96.60;;;29.33;;
46731;SDS011;32477;51.474;5.696;2024-02-28T00:36:05;116.32;;;28.63;;
46731;SDS011;32477;51.474;5.696;2024-02-28T00:38:31;131.48;;;31.08;;
46731;SDS011;32477;51.474;5.696;2024-02-28T00:40:57;120.30;;;31.38;;
46731;SDS011;32477;51.474;5.696;2024-02-28T00:43:22;115.93;;;29.38;;
46731;SDS011;32477;51.474;5.696;2024-02-28T00:45:48;119.90;;;29.98;;
46731;SDS011;32477;51.474;5.696;2024-02-28T00:48:14;122.20;;;30.05;;
46731;SDS011;32477;51.474;5.696;2024-02-28T00:50:39;113.63;;;29.02;;
46731;SDS011;32477;51.474;5.696;2024-02-28T00:53:05;136.40;;;32.10;;
46731;SDS011;32477;51.474;5.696;2024-02-28T00:55:30;151.13;;;33.83;;
46731;SDS011;32477;51.474;5.696;2024-02-28T00:57:56;116.50;;;34.20;;
46731;SDS011;32477;51.474;5.696;2024-02-28T01:00:21;161.60;;;36.25;;
46731;SDS011;32477;51.474;5.696;2024-02-28T01:02:47;144.63;;;34.95;;
46731;SDS011;32477;51.474;5.696;2024-02-28T01:05:13;135.50;;;34.90;;
46731;SDS011;32477;51.474;5.696;2024-02-28T01:07:38;152.52;;;34.53;;
46731;SDS011;32477;51.474;5.696;2024-02-28T01:10:04;172.13;;;37.97;;
46731;SDS011;32477;51.474;5.696;2024-02-28T01:12:31;138.10;;;35.05;;
46731;SDS011;32477;51.474;5.696;2024-02-28T01:14:56;149.60;;;33.75;;
46731;SDS011;32477;51.474;5.696;2024-02-28T01:17:22;132.65;;;32.53;;
46731;SDS011;32477;51.474;5.696;2024-02-28T01:19:48;149.73;;;34.53;;
46731;SDS011;32477;51.474;5.696;2024-02-28T01:22:14;145.38;;;36.83;;
46731;SDS011;32477;51.474;5.696;2024-02-28T01:24:39;139.70;;;32.30;;
46731;SDS011;32477;51.474;5.696;2024-02-28T01:27:05;136.57;;;32.90;;
46731;SDS011;32477;51.474;5.696;2024-02-28T01:29:30;147.38;;;32.00;;
46731;SDS011;32477;51.474;5.696;2024-02-28T01:31:56;143.57;;;32.58;;
46731;SDS011;32477;51.474;5.696;2024-02-28T01:34:23;144.20;;;33.63;;
46731;SDS011;32477;51.474;5.696;2024-02-28T01:36:48;150.38;;;36.38;;
46731;SDS011;32477;51.474;5.696;2024-02-28T01:39:14;144.85;;;33.97;;
46731;SDS011;32477;51.474;5.696;2024-02-28T01:41:39;161.73;;;36.15;;
46731;SDS011;32477;51.474;5.696;2024-02-28T01:44:08;167.35;;;37.95;;
46731;SDS011;32477;51.474;5.696;2024-02-28T01:46:33;168.90;;;35.55;;
46731;SDS011;32477;51.474;5.696;2024-02-28T01:49:00;153.45;;;33.67;;
46731;SDS011;32477;51.474;5.696;2024-02-28T01:51:26;143.57;;;33.45;;
46731;SDS011;32477;51.474;5.696;2024-02-28T01:53:52;142.98;;;32.70;;
46731;SDS011;32477;51.474;5.696;2024-02-28T01:56:19;133.25;;;31.27;;
46731;SDS011;32477;51.474;5.696;2024-02-28T01:58:47;128.82;;;32.45;;
46731;SDS011;32477;51.474;5.696;2024-02-28T02:01:14;150.73;;;32.20;;
46731;SDS011;32477;51.474;5.696;2024-02-28T02:03:40;125.47;;;31.88;;
46731;SDS011;32477;51.474;5.696;2024-02-28T02:06:07;139.10;;;33.13;;
46731;SDS011;32477;51.474;5.696;2024-02-28T02:08:33;129.15;;;32.05;;
46731;SDS011;32477;51.474;5.696;2024-02-28T02:10:59;125.32;;;29.92;;
46731;SDS011;32477;51.474;5.696;2024-02-28T02:13:24;124.38;;;31.42;;
46731;SDS011;32477;51.474;5.696;2024-02-28T02:15:50;126.10;;;29.85;;
46731;SDS011;32477;51.474;5.696;2024-02-28T02:18:16;142.35;;;32.15;;
46731;SDS011;32477;51.474;5.696;2024-02-28T02:20:43;136.05;;;31.85;;
46731;SDS011;32477;51.474;5.696;2024-02-28T02:23:11;146.70;;;33.88;;
46731;SDS011;32477;51.474;5.696;2024-02-28T02:25:44;147.80;;;33.75;;
46731;SDS011;32477;51.474;5.696;2024-02-28T02:28:10;168.32;;;34.85;;
46731;SDS011;32477;51.474;5.696;2024-02-28T02:30:37;148.57;;;35.20;;
46731;SDS011;32477;51.474;5.696;2024-02-28T02:33:03;149.60;;;32.22;;
46731;SDS011;32477;51.474;5.696;2024-02-28T02:35:29;145.32;;;34.75;;
46731;SDS011;32477;51.474;5.696;2024-02-28T02:37:55;137.18;;;34.63;;
46731;SDS011;32477;51.474;5.696;2024-02-28T02:40:21;152.98;;;34.95;;
46731;SDS011;32477;51.474;5.696;2024-02-28T02:42:46;167.27;;;35.30;;
46731;SDS011;32477;51.474;5.696;2024-02-28T02:45:12;173.90;;;35.88;;
46731;SDS011;32477;51.474;5.696;2024-02-28T02:47:37;140.68;;;34.25;;
46731;SDS011;32477;51.474;5.696;2024-02-28T02:50:03;150.32;;;33.65;;
46731;SDS011;32477;51.474;5.696;2024-02-28T02:52:29;139.70;;;31.90;;
46731;SDS011;32477;51.474;5.696;2024-02-28T02:54:55;152.45;;;32.30;;
46731;SDS011;32477;51.474;5.696;2024-02-28T02:57:21;126.82;;;30.73;;
46731;SDS011;32477;51.474;5.696;2024-02-28T02:59:46;159.65;;;33.00;;
46731;SDS011;32477;51.474;5.696;2024-02-28T03:02:12;130.02;;;29.48;;
46731;SDS011;32477;51.474;5.696;2024-02-28T03:04:37;121.50;;;31.10;;
46731;SDS011;32477;51.474;5.696;2024-02-28T03:07:03;140.27;;;32.67;;
46731;SDS011;32477;51.474;5.696;2024-02-28T03:09:28;152.35;;;31.48;;
46731;SDS011;32477;51.474;5.696;2024-02-28T03:11:54;128.40;;;33.28;;
46731;SDS011;32477;51.474;5.696;2024-02-28T03:14:19;107.22;;;30.15;;
46731;SDS011;32477;51.474;5.696;2024-02-28T03:16:47;121.72;;;31.35;;
46731;SDS011;32477;51.474;5.696;2024-02-28T03:19:13;132.40;;;30.30;;
46731;SDS011;32477;51.474;5.696;2024-02-28T03:21:40;116.82;;;33.05;;
46731;SDS011;32477;51.474;5.696;2024-02-28T03:24:06;113.88;;;33.50;;
46731;SDS011;32477;51.474;5.696;2024-02-28T03:26:32;119.43;;;31.27;;
46731;SDS011;32477;51.474;5.696;2024-02-28T03:28:57;115.60;;;31.40;;
46731;SDS011;32477;51.474;5.696;2024-02-28T03:31:24;102.20;;;33.08;;
46731;SDS011;32477;51.474;5.696;2024-02-28T03:33:50;125.85;;;34.05;;
46731;SDS011;32477;51.474;5.696;2024-02-28T03:36:15;94.72;;;31.00;;
46731;SDS011;32477;51.474;5.696;2024-02-28T03:38:41;115.90;;;34.28;;
46731;SDS011;32477;51.474;5.696;2024-02-28T03:41:07;135.63;;;33.40;;
46731;SDS011;32477;51.474;5.696;2024-02-28T03:43:32;107.68;;;33.00;;
46731;SDS011;32477;51.474;5.696;2024-02-28T03:45:58;157.40;;;34.90;;
46731;SDS011;32477;51.474;5.696;2024-02-28T03:48:24;114.30;;;33.17;;
46731;SDS011;32477;51.474;5.696;2024-02-28T03:50:49;106.43;;;32.85;;
46731;SDS011;32477;51.474;5.696;2024-02-28T03:53:15;125.65;;;33.75;;
46731;SDS011;32477;51.474;5.696;2024-02-28T03:55:41;119.13;;;35.17;;
46731;SDS011;32477;51.474;5.696;2024-02-28T03:58:09;120.53;;;33.63;;
46731;SDS011;32477;51.474;5.696;2024-02-28T04:00:35;128.70;;;35.40;;
46731;SDS011;32477;51.474;5.696;2024-02-28T04:03:01;150.00;;;34.10;;
46731;SDS011;32477;51.474;5.696;2024-02-28T04:05:27;144.60;;;33.47;;
46731;SDS011;32477;51.474;5.696;2024-02-28T04:07:54;122.90;;;31.60;;
46731;SDS011;32477;51.474;5.696;2024-02-28T04:10:19;132.27;;;33.75;;
46731;SDS011;32477;51.474;5.696;2024-02-28T04:12:45;137.48;;;36.80;;
46731;SDS011;32477;51.474;5.696;2024-02-28T04:15:11;134.02;;;34.28;;
46731;SDS011;32477;51.474;5.696;2024-02-28T04:17:39;152.55;;;38.15;;
46731;SDS011;32477;51.474;5.696;2024-02-28T04:20:09;130.32;;;37.53;;
46731;SDS011;32477;51.474;5.696;2024-02-28T04:22:35;138.75;;;37.08;;
46731;SDS011;32477;51.474;5.696;2024-02-28T04:25:01;135.90;;;33.60;;
46731;SDS011;32477;51.474;5.696;2024-02-28T04:27:27;132.75;;;36.33;;
46731;SDS011;32477;51.474;5.696;2024-02-28T04:29:53;117.57;;;33.03;;
46731;SDS011;32477;51.474;5.696;2024-02-28T04:32:18;152.35;;;35.60;;
46731;SDS011;32477;51.474;5.696;2024-02-28T04:34:44;164.88;;;37.67;;
46731;SDS011;32477;51.474;5.696;2024-02-28T04:37:10;149.45;;;37.85;;
46731;SDS011;32477;51.474;5.696;2024-02-28T04:39:36;156.25;;;37.88;;
46731;SDS011;32477;51.474;5.696;2024-02-28T04:42:02;165.40;;;37.88;;
46731;SDS011;32477;51.474;5.696;2024-02-28T04:44:27;163.45;;;39.65;;
46731;SDS011;32477;51.474;5.696;2024-02-28T04:46:53;182.40;;;39.42;;
46731;SDS011;32477;51.474;5.696;2024-02-28T04:49:19;143.70;;;34.55;;
46731;SDS011;32477;51.474;5.696;2024-02-28T04:51:45;178.95;;;39.25;;
46731;SDS011;32477;51.474;5.696;2024-02-28T04:54:10;194.52;;;39.00;;
46731;SDS011;32477;51.474;5.696;2024-02-28T04:56:42;168.68;;;39.40;;
46731;SDS011;32477;51.474;5.696;2024-02-28T04:59:08;158.48;;;37.45;;
46731;SDS011;32477;51.474;5.696;2024-02-28T05:01:35;163.00;;;37.10;;
46731;SDS011;32477;51.474;5.696;2024-02-28T05:04:04;151.85;;;38.45;;
46731;SDS011;32477;51.474;5.696;2024-02-28T05:06:31;173.68;;;35.28;;
46731;SDS011;32477;51.474;5.696;2024-02-28T05:08:56;134.60;;;34.97;;
46731;SDS011;32477;51.474;5.696;2024-02-28T05:11:22;128.98;;;34.42;;
46731;SDS011;32477;51.474;5.696;2024-02-28T05:13:48;145.18;;;34.95;;
46731;SDS011;32477;51.474;5.696;2024-02-28T05:16:14;132.93;;;35.85;;
46731;SDS011;32477;51.474;5.696;2024-02-28T05:18:40;132.90;;;35.95;;
46731;SDS011;32477;51.474;5.696;2024-02-28T05:21:06;114.93;;;35.10;;
46731;SDS011;32477;51.474;5.696;2024-02-28T05:23:31;127.57;;;33.33;;
46731;SDS011;32477;51.474;5.696;2024-02-28T05:25:57;131.30;;;36.17;;
46731;SDS011;32477;51.474;5.696;2024-02-28T05:28:28;130.48;;;37.22;;
46731;SDS011;32477;51.474;5.696;2024-02-28T05:30:58;134.60;;;35.67;;
46731;SDS011;32477;51.474;5.696;2024-02-28T05:33:25;153.43;;;37.35;;
46731;SDS011;32477;51.474;5.696;2024-02-28T05:35:50;143.05;;;35.45;;
46731;SDS011;32477;51.474;5.696;2024-02-28T05:38:16;166.43;;;37.28;;
46731;SDS011;32477;51.474;5.696;2024-02-28T05:40:41;122.57;;;37.47;;
46731;SDS011;32477;51.474;5.696;2024-02-28T05:43:07;152.25;;;37.72;;
46731;SDS011;32477;51.474;5.696;2024-02-28T05:45:33;141.95;;;37.97;;
46731;SDS011;32477;51.474;5.696;2024-02-28T05:47:58;144.82;;;38.53;;
46731;SDS011;32477;51.474;5.696;2024-02-28T05:50:24;143.82;;;37.08;;
46731;SDS011;32477;51.474;5.696;2024-02-28T05:52:50;143.57;;;37.13;;
46731;SDS011;32477;51.474;5.696;2024-02-28T05:55:16;142.25;;;35.50;;
46731;SDS011;32477;51.474;5.696;2024-02-28T05:57:42;145.23;;;37.65;;
46731;SDS011;32477;51.474;5.696;2024-02-28T06:00:08;131.38;;;37.05;;
46731;SDS011;32477;51.474;5.696;2024-02-28T06:02:37;118.97;;;35.20;;
46731;SDS011;32477;51.474;5.696;2024-02-28T06:05:03;147.82;;;37.80;;
46731;SDS011;32477;51.474;5.696;2024-02-28T06:07:29;146.05;;;36.65;;
46731;SDS011;32477;51.474;5.696;2024-02-28T06:09:55;125.47;;;36.65;;
46731;SDS011;32477;51.474;5.696;2024-02-28T06:12:21;124.55;;;37.53;;
46731;SDS011;32477;51.474;5.696;2024-02-28T06:14:46;138.20;;;37.47;;
46731;SDS011;32477;51.474;5.696;2024-02-28T06:17:12;125.93;;;35.55;;
46731;SDS011;32477;51.474;5.696;2024-02-28T06:19:38;109.15;;;35.13;;
46731;SDS011;32477;51.474;5.696;2024-02-28T06:22:04;119.93;;;36.65;;
46731;SDS011;32477;51.474;5.696;2024-02-28T06:24:29;126.78;;;35.35;;
46731;SDS011;32477;51.474;5.696;2024-02-28T06:26:55;112.68;;;32.78;;
46731;SDS011;32477;51.474;5.696;2024-02-28T06:29:20;111.30;;;32.70;;
46731;SDS011;32477;51.474;5.696;2024-02-28T06:31:53;118.90;;;33.65;;
46731;SDS011;32477;51.474;5.696;2024-02-28T06:34:20;89.93;;;33.33;;
46731;SDS011;32477;51.474;5.696;2024-02-28T06:36:47;100.30;;;33.50;;
46731;SDS011;32477;51.474;5.696;2024-02-28T06:39:13;115.75;;;34.05;;
46731;SDS011;32477;51.474;5.696;2024-02-28T06:41:38;101.10;;;34.33;;
46731;SDS011;32477;51.474;5.696;2024-02-28T06:44:04;97.57;;;30.42;;
46731;SDS011;32477;51.474;5.696;2024-02-28T06:46:30;109.43;;;33.70;;
46731;SDS011;32477;51.474;5.696;2024-02-28T06:48:55;108.32;;;32.20;;
46731;SDS011;32477;51.474;5.696;2024-02-28T06:51:21;93.05;;;32.78;;
46731;SDS011;32477;51.474;5.696;2024-02-28T06:53:46;104.53;;;33.08;;
46731;SDS011;32477;51.474;5.696;2024-02-28T06:56:12;101.97;;;33.60;;
46731;SDS011;32477;51.474;5.696;2024-02-28T06:58:37;105.60;;;33.83;;
46731;SDS011;32477;51.474;5.696;2024-02-28T07:01:03;93.85;;;32.00;;
46731;SDS011;32477;51.474;5.696;2024-02-28T07:03:29;101.80;;;34.03;;
46731;SDS011;32477;51.474;5.696;2024-02-28T07:05:55;103.63;;;33.88;;
46731;SDS011;32477;51.474;5.696;2024-02-28T07:08:20;110.78;;;33.72;;
46731;SDS011;32477;51.474;5.696;2024-02-28T07:10:46;106.63;;;35.17;;
46731;SDS011;32477;51.474;5.696;2024-02-28T07:13:14;96.20;;;33.10;;
46731;SDS011;32477;51.474;5.696;2024-02-28T07:15:40;86.20;;;29.20;;
46731;SDS011;32477;51.474;5.696;2024-02-28T07:18:06;90.40;;;32.33;;
46731;SDS011;32477;51.474;5.696;2024-02-28T07:20:32;100.63;;;33.33;;
46731;SDS011;32477;51.474;5.696;2024-02-28T07:22:58;104.22;;;34.50;;
46731;SDS011;32477;51.474;5.696;2024-02-28T07:25:24;83.22;;;31.08;;
46731;SDS011;32477;51.474;5.696;2024-02-28T07:27:50;94.22;;;34.03;;
46731;SDS011;32477;51.474;5.696;2024-02-28T07:30:15;97.75;;;33.10;;
46731;SDS011;32477;51.474;5.696;2024-02-28T07:32:41;102.93;;;31.40;;
46731;SDS011;32477;51.474;5.696;2024-02-28T07:35:07;94.38;;;31.08;;
46731;SDS011;32477;51.474;5.696;2024-02-28T07:37:33;92.05;;;33.00;;
46731;SDS011;32477;51.474;5.696;2024-02-28T07:39:58;108.30;;;33.30;;
46731;SDS011;32477;51.474;5.696;2024-02-28T07:42:24;102.95;;;34.17;;
46731;SDS011;32477;51.474;5.696;2024-02-28T07:44:50;103.40;;;33.38;;
46731;SDS011;32477;51.474;5.696;2024-02-28T07:47:19;94.32;;;30.13;;
46731;SDS011;32477;51.474;5.696;2024-02-28T07:49:44;92.70;;;31.45;;
46731;SDS011;32477;51.474;5.696;2024-02-28T07:52:10;86.05;;;30.08;;
46731;SDS011;32477;51.474;5.696;2024-02-28T07:54:36;88.07;;;30.50;;
46731;SDS011;32477;51.474;5.696;2024-02-28T07:57:02;87.45;;;29.90;;
46731;SDS011;32477;51.474;5.696;2024-02-28T07:59:28;75.78;;;28.65;;
46731;SDS011;32477;51.474;5.696;2024-02-28T08:01:54;81.75;;;30.63;;
46731;SDS011;32477;51.474;5.696;2024-02-28T08:04:20;95.65;;;33.90;;
46731;SDS011;32477;51.474;5.696;2024-02-28T08:06:46;92.43;;;31.73;;
46731;SDS011;32477;51.474;5.696;2024-02-28T08:09:11;84.03;;;32.08;;
46731;SDS011;32477;51.474;5.696;2024-02-28T08:11:37;98.18;;;31.58;;
46731;SDS011;32477;51.474;5.696;2024-02-28T08:14:02;93.13;;;32.03;;
46731;SDS011;32477;51.474;5.696;2024-02-28T08:16:28;95.75;;;30.92;;
46731;SDS011;32477;51.474;5.696;2024-02-28T08:18:54;80.95;;;28.73;;
46731;SDS011;32477;51.474;5.696;2024-02-28T08:21:19;98.40;;;32.03;;
46731;SDS011;32477;51.474;5.696;2024-02-28T08:23:45;78.82;;;28.02;;
46731;SDS011;32477;51.474;5.696;2024-02-28T08:26:10;89.57;;;31.67;;
46731;SDS011;32477;51.474;5.696;2024-02-28T08:28:36;91.30;;;32.15;;
46731;SDS011;32477;51.474;5.696;2024-02-28T08:31:02;70.28;;;27.90;;
46731;SDS011;32477;51.474;5.696;2024-02-28T08:33:28;87.25;;;29.58;;
46731;SDS011;32477;51.474;5.696;2024-02-28T08:35:53;84.10;;;30.05;;
46731;SDS011;32477;51.474;5.696;2024-02-28T08:38:19;91.38;;;30.95;;
46731;SDS011;32477;51.474;5.696;2024-02-28T08:40:44;74.50;;;28.67;;
46731;SDS011;32477;51.474;5.696;2024-02-28T08:43:10;76.68;;;30.23;;
46731;SDS011;32477;51.474;5.696;2024-02-28T08:45:36;74.00;;;29.67;;
46731;SDS011;32477;51.474;5.696;2024-02-28T08:48:01;67.38;;;29.73;;
46731;SDS011;32477;51.474;5.696;2024-02-28T08:50:27;71.53;;;26.73;;
46731;SDS011;32477;51.474;5.696;2024-02-28T08:52:54;73.63;;;27.85;;
46731;SDS011;32477;51.474;5.696;2024-02-28T08:55:19;73.40;;;29.63;;
46731;SDS011;32477;51.474;5.696;2024-02-28T08:57:46;70.00;;;27.77;;
46731;SDS011;32477;51.474;5.696;2024-02-28T09:00:13;79.82;;;29.15;;
46731;SDS011;32477;51.474;5.696;2024-02-28T09:02:40;77.07;;;30.75;;
46731;SDS011;32477;51.474;5.696;2024-02-28T09:05:06;66.40;;;28.98;;
46731;SDS011;32477;51.474;5.696;2024-02-28T09:07:32;67.55;;;28.67;;
46731;SDS011;32477;51.474;5.696;2024-02-28T09:10:00;70.10;;;28.15;;
46731;SDS011;32477;51.474;5.696;2024-02-28T09:12:30;60.00;;;27.05;;
46731;SDS011;32477;51.474;5.696;2024-02-28T09:14:56;52.25;;;24.67;;
46731;SDS011;32477;51.474;5.696;2024-02-28T09:17:23;51.40;;;24.02;;
46731;SDS011;32477;51.474;5.696;2024-02-28T09:19:49;52.92;;;24.48;;
46731;SDS011;32477;51.474;5.696;2024-02-28T09:22:16;51.58;;;24.83;;
46731;SDS011;32477;51.474;5.696;2024-02-28T09:24:42;47.35;;;24.00;;
46731;SDS011;32477;51.474;5.696;2024-02-28T09:27:08;42.92;;;22.65;;
46731;SDS011;32477;51.474;5.696;2024-02-28T09:29:33;63.72;;;24.33;;
46731;SDS011;32477;51.474;5.696;2024-02-28T09:31:59;43.22;;;21.80;;
46731;SDS011;32477;51.474;5.696;2024-02-28T09:34:24;40.83;;;20.05;;
46731;SDS011;32477;51.474;5.696;2024-02-28T09:36:50;42.35;;;20.80;;
46731;SDS011;32477;51.474;5.696;2024-02-28T09:39:16;32.13;;;17.75;;
46731;SDS011;32477;51.474;5.696;2024-02-28T09:41:42;36.78;;;18.88;;
46731;SDS011;32477;51.474;5.696;2024-02-28T09:44:07;32.75;;;17.17;;
46731;SDS011;32477;51.474;5.696;2024-02-28T09:46:33;36.08;;;16.85;;
46731;SDS011;32477;51.474;5.696;2024-02-28T09:49:06;30.80;;;16.60;;
46731;SDS011;32477;51.474;5.696;2024-02-28T09:51:33;35.00;;;15.48;;
46731;SDS011;32477;51.474;5.696;2024-02-28T09:54:05;32.05;;;16.75;;
46731;SDS011;32477;51.474;5.696;2024-02-28T09:56:31;30.73;;;15.93;;
46731;SDS011;32477;51.474;5.696;2024-02-28T09:58:57;29.48;;;16.63;;
46731;SDS011;32477;51.474;5.696;2024-02-28T10:01:25;32.63;;;16.77;;
46731;SDS011;32477;51.474;5.696;2024-02-28T10:03:51;30.08;;;16.25;;
46731;SDS011;32477;51.474;5.696;2024-02-28T10:06:19;31.48;;;16.92;;
46731;SDS011;32477;51.474;5.696;2024-02-28T10:08:45;28.02;;;15.15;;
46731;SDS011;32477;51.474;5.696;2024-02-28T10:11:17;37.83;;;16.55;;
46731;SDS011;32477;51.474;5.696;2024-02-28T10:13:45;30.75;;;14.23;;
46731;SDS011;32477;51.474;5.696;2024-02-28T10:16:12;30.70;;;15.98;;
46731;SDS011;32477;51.474;5.696;2024-02-28T10:18:37;39.33;;;15.85;;
46731;SDS011;32477;51.474;5.696;2024-02-28T10:21:03;29.08;;;15.43;;
46731;SDS011;32477;51.474;5.696;2024-02-28T10:23:29;34.42;;;16.60;;
46731;SDS011;32477;51.474;5.696;2024-02-28T10:25:55;35.70;;;17.58;;
46731;SDS011;32477;51.474;5.696;2024-02-28T10:28:21;29.95;;;15.52;;
46731;SDS011;32477;51.474;5.696;2024-02-28T10:30:46;34.88;;;16.65;;
46731;SDS011;32477;51.474;5.696;2024-02-28T10:33:15;31.60;;;15.73;;
46731;SDS011;32477;51.474;5.696;2024-02-28T10:35:41;39.35;;;17.15;;
46731;SDS011;32477;51.474;5.696;2024-02-28T10:38:11;30.85;;;17.02;;
46731;SDS011;32477;51.474;5.696;2024-02-28T10:40:39;32.70;;;15.98;;
46731;SDS011;32477;51.474;5.696;2024-02-28T10:43:05;29.00;;;15.80;;
46731;SDS011;32477;51.474;5.696;2024-02-28T10:45:35;28.02;;;14.15;;
46731;SDS011;32477;51.474;5.696;2024-02-28T10:48:03;32.13;;;16.00;;
46731;SDS011;32477;51.474;5.696;2024-02-28T10:50:30;34.20;;;15.45;;
46731;SDS011;32477;51.474;5.696;2024-02-28T10:52:57;28.67;;;14.40;;
46731;SDS011;32477;51.474;5.696;2024-02-28T10:55:27;31.38;;;14.93;;
46731;SDS011;32477;51.474;5.696;2024-02-28T10:58:09;28.50;;;14.70;;
46731;SDS011;32477;51.474;5.696;2024-02-28T11:00:36;29.02;;;14.13;;
46731;SDS011;32477;51.474;5.696;2024-02-28T11:03:04;25.42;;;14.35;;
46731;SDS011;32477;51.474;5.696;2024-02-28T11:05:41;34.60;;;14.90;;
46731;SDS011;32477;51.474;5.696;2024-02-28T11:08:27;27.67;;;14.20;;
46731;SDS011;32477;51.474;5.696;2024-02-28T11:10:57;28.42;;;15.90;;
46731;SDS011;32477;51.474;5.696;2024-02-28T11:13:24;32.28;;;16.35;;
46731;SDS011;32477;51.474;5.696;2024-02-28T11:15:52;32.38;;;15.63;;
46731;SDS011;32477;51.474;5.696;2024-02-28T11:18:18;28.65;;;15.00;;
46731;SDS011;32477;51.474;5.696;2024-02-28T11:20:44;36.85;;;15.45;;
46731;SDS011;32477;51.474;5.696;2024-02-28T11:23:13;32.38;;;15.55;;
46731;SDS011;32477;51.474;5.696;2024-02-28T11:25:40;26.52;;;14.85;;
46731;SDS011;32477;51.474;5.696;2024-02-28T11:28:06;31.45;;;15.63;;
46731;SDS011;32477;51.474;5.696;2024-02-28T11:30:32;36.40;;;17.08;;
46731;SDS011;32477;51.474;5.696;2024-02-28T11:32:58;29.52;;;15.38;;
46731;SDS011;32477;51.474;5.696;2024-02-28T11:35:24;31.70;;;15.38;;
46731;SDS011;32477;51.474;5.696;2024-02-28T11:37:51;36.60;;;17.35;;
46731;SDS011;32477;51.474;5.696;2024-02-28T11:40:21;36.47;;;16.00;;
46731;SDS011;32477;51.474;5.696;2024-02-28T11:42:48;42.58;;;17.27;;
46731;SDS011;32477;51.474;5.696;2024-02-28T11:45:14;47.90;;;20.15;;
46731;SDS011;32477;51.474;5.696;2024-02-28T11:47:40;41.13;;;18.25;;
46731;SDS011;32477;51.474;5.696;2024-02-28T11:50:05;46.38;;;19.52;;
46731;SDS011;32477;51.474;5.696;2024-02-28T11:52:32;38.28;;;18.23;;
46731;SDS011;32477;51.474;5.696;2024-02-28T11:54:58;41.70;;;17.08;;
46731;SDS011;32477;51.474;5.696;2024-02-28T11:57:25;36.30;;;15.00;;
46731;SDS011;32477;51.474;5.696;2024-02-28T11:59:51;33.25;;;15.43;;
46731;SDS011;32477;51.474;5.696;2024-02-28T12:02:17;37.72;;;15.30;;
46731;SDS011;32477;51.474;5.696;2024-02-28T12:04:43;32.03;;;14.38;;
46731;SDS011;32477;51.474;5.696;2024-02-28T12:07:09;32.00;;;13.75;;
46731;SDS011;32477;51.474;5.696;2024-02-28T12:09:36;33.83;;;14.43;;
46731;SDS011;32477;51.474;5.696;2024-02-28T12:12:01;30.38;;;14.23;;
46731;SDS011;32477;51.474;5.696;2024-02-28T12:14:32;34.83;;;14.30;;
46731;SDS011;32477;51.474;5.696;2024-02-28T12:17:01;34.55;;;15.02;;
46731;SDS011;32477;51.474;5.696;2024-02-28T12:19:28;34.13;;;14.77;;
46731;SDS011;32477;51.474;5.696;2024-02-28T12:21:53;38.45;;;16.67;;
46731;SDS011;32477;51.474;5.696;2024-02-28T12:24:19;37.53;;;15.50;;
46731;SDS011;32477;51.474;5.696;2024-02-28T12:26:45;36.90;;;16.23;;
46731;SDS011;32477;51.474;5.696;2024-02-28T12:29:11;43.10;;;15.75;;
46731;SDS011;32477;51.474;5.696;2024-02-28T12:31:37;44.70;;;16.73;;
46731;SDS011;32477;51.474;5.696;2024-02-28T12:34:03;38.13;;;16.05;;
46731;SDS011;32477;51.474;5.696;2024-02-28T12:36:29;37.35;;;16.50;;
46731;SDS011;32477;51.474;5.696;2024-02-28T12:38:56;43.42;;;16.95;;
46731;SDS011;32477;51.474;5.696;2024-02-28T12:41:23;36.83;;;15.50;;
46731;SDS011;32477;51.474;5.696;2024-02-28T12:43:49;36.65;;;15.65;;
46731;SDS011;32477;51.474;5.696;2024-02-28T12:46:15;34.70;;;15.90;;
46731;SDS011;32477;51.474;5.696;2024-02-28T12:48:40;34.97;;;15.80;;
46731;SDS011;32477;51.474;5.696;2024-02-28T12:51:06;37.95;;;15.10;;
46731;SDS011;32477;51.474;5.696;2024-02-28T12:53:35;35.78;;;14.25;;
46731;SDS011;32477;51.474;5.696;2024-02-28T12:56:01;34.22;;;14.98;;
46731;SDS011;32477;51.474;5.696;2024-02-28T12:58:27;28.83;;;14.52;;
46731;SDS011;32477;51.474;5.696;2024-02-28T13:00:52;31.42;;;13.95;;
46731;SDS011;32477;51.474;5.696;2024-02-28T13:03:18;32.67;;;12.40;;
46731;SDS011;32477;51.474;5.696;2024-02-28T13:05:44;39.28;;;13.70;;
46731;SDS011;32477;51.474;5.696;2024-02-28T13:08:10;29.73;;;11.48;;
46731;SDS011;32477;51.474;5.696;2024-02-28T13:10:36;29.92;;;12.50;;
46731;SDS011;32477;51.474;5.696;2024-02-28T13:13:06;25.67;;;11.63;;
46731;SDS011;32477;51.474;5.696;2024-02-28T13:15:32;25.25;;;11.68;;
46731;SDS011;32477;51.474;5.696;2024-02-28T13:17:58;28.73;;;11.32;;
46731;SDS011;32477;51.474;5.696;2024-02-28T13:20:24;26.25;;;11.65;;
46731;SDS011;32477;51.474;5.696;2024-02-28T13:22:50;29.20;;;13.18;;
46731;SDS011;32477;51.474;5.696;2024-02-28T13:25:16;29.83;;;13.63;;
46731;SDS011;32477;51.474;5.696;2024-02-28T13:27:44;28.20;;;11.57;;
46731;SDS011;32477;51.474;5.696;2024-02-28T13:30:10;25.33;;;11.50;;
46731;SDS011;32477;51.474;5.696;2024-02-28T13:32:36;26.88;;;12.75;;
46731;SDS011;32477;51.474;5.696;2024-02-28T13:35:02;26.33;;;11.90;;
46731;SDS011;32477;51.474;5.696;2024-02-28T13:37:28;24.65;;;11.23;;
46731;SDS011;32477;51.474;5.696;2024-02-28T13:39:53;27.10;;;11.90;;
46731;SDS011;32477;51.474;5.696;2024-02-28T13:42:19;26.80;;;11.25;;
46731;SDS011;32477;51.474;5.696;2024-02-28T13:44:45;28.50;;;11.93;;
46731;SDS011;32477;51.474;5.696;2024-02-28T13:47:11;24.98;;;11.82;;
46731;SDS011;32477;51.474;5.696;2024-02-28T13:49:40;24.88;;;10.40;;
46731;SDS011;32477;51.474;5.696;2024-02-28T13:52:06;29.98;;;12.07;;
46731;SDS011;32477;51.474;5.696;2024-02-28T13:54:32;29.70;;;11.50;;
46731;SDS011;32477;51.474;5.696;2024-02-28T13:56:58;25.92;;;10.90;;
46731;SDS011;32477;51.474;5.696;2024-02-28T13:59:23;21.25;;;10.75;;
46731;SDS011;32477;51.474;5.696;2024-02-28T14:01:49;19.13;;;9.85;;
46731;SDS011;32477;51.474;5.696;2024-02-28T14:04:15;20.58;;;10.38;;
46731;SDS011;32477;51.474;5.696;2024-02-28T14:06:41;26.98;;;10.40;;
46731;SDS011;32477;51.474;5.696;2024-02-28T14:09:07;20.83;;;8.75;;
46731;SDS011;32477;51.474;5.696;2024-02-28T14:11:34;19.60;;;9.27;;